METAR Data
IDs: Format: Raw Decoded Include TAF

Data at: 1722 UTC 18 Feb 2019

METAR for:KRDK (Red Oak Muni, IA, US)
Text:KRDK 181715Z AUTO VRB04KT 10SM CLR M09/M12 A3050 RMK AO2
Temperature: -9.0°C ( 16°F)
Dewpoint:-12.0°C ( 10°F) [RH = 79%]
Pressure (altimeter):30.50 inches Hg (1032.9 mb)
Winds:variable direction winds at 5 MPH (4 knots; 2.1 m/s)
Visibility:10 or more sm (16+ km)
Ceiling:at least 12,000 feet AGL
Clouds:sky clear below 12,000 feet AGL
QC Flag:automated observation with no human augmentation